createdAt,value
2023-05-13T00:00:45.455Z,2.63
2023-05-13T00:01:45.572Z,2.74
2023-05-13T00:02:45.669Z,2.90
2023-05-13T00:03:45.775Z,2.79
2023-05-13T00:04:45.782Z,2.85
2023-05-13T00:05:45.962Z,2.69
2023-05-13T00:06:45.927Z,2.79
2023-05-13T00:07:46.032Z,2.63
2023-05-13T00:08:46.077Z,2.79
2023-05-13T00:09:46.183Z,2.63
2023-05-13T00:10:46.264Z,2.69
2023-05-13T00:11:46.317Z,2.90
2023-05-13T00:12:46.401Z,2.58
2023-05-13T00:13:46.498Z,2.85
2023-05-13T00:14:46.553Z,2.74
2023-05-13T00:15:46.626Z,2.63
2023-05-13T00:16:46.735Z,2.63
2023-05-13T00:17:46.905Z,2.63
2023-05-13T00:18:46.927Z,2.69
2023-05-13T00:19:46.975Z,2.58
2023-05-13T00:20:47.045Z,2.74
2023-05-13T00:21:47.132Z,2.90
2023-05-13T00:22:47.204Z,2.85
2023-05-13T00:23:47.260Z,2.79
2023-05-13T00:24:47.324Z,2.63
2023-05-13T00:25:47.434Z,2.79
2023-05-13T00:26:47.530Z,2.74
2023-05-13T00:27:47.624Z,2.52
2023-05-13T00:28:47.667Z,2.63
2023-05-13T00:29:47.723Z,2.69
2023-05-13T00:30:47.800Z,2.74
2023-05-13T00:31:47.998Z,2.69
2023-05-13T00:32:48.087Z,2.79
2023-05-13T00:33:48.073Z,2.58
2023-05-13T00:34:48.188Z,2.63
2023-05-13T00:35:48.258Z,2.69
2023-05-13T00:36:48.327Z,2.69
2023-05-13T00:37:48.402Z,2.85
2023-05-13T00:38:48.450Z,2.74
2023-05-13T00:39:48.562Z,2.63
2023-05-13T00:40:48.703Z,2.79
2023-05-13T00:41:48.715Z,2.85
2023-05-13T00:42:48.800Z,2.63
2023-05-13T00:43:48.906Z,2.79
2023-05-13T00:44:48.953Z,2.85
2023-05-13T00:45:49.067Z,2.79
2023-05-13T00:46:49.145Z,2.79
2023-05-13T00:47:49.220Z,2.74
2023-05-13T00:48:49.280Z,2.69
2023-05-13T00:49:49.379Z,2.63
2023-05-13T00:50:49.424Z,2.85
2023-05-13T00:51:49.508Z,2.79
2023-05-13T00:52:49.611Z,2.69
2023-05-13T00:53:49.682Z,2.63
2023-05-13T00:54:49.741Z,2.74
2023-05-13T00:55:49.874Z,2.69
2023-05-13T00:56:49.931Z,2.74
2023-05-13T00:57:50.003Z,2.74
2023-05-13T00:58:50.113Z,2.85
2023-05-13T00:59:50.184Z,2.63
2023-05-13T01:00:50.295Z,2.79
2023-05-13T01:01:50.339Z,2.79
2023-05-13T01:02:50.591Z,2.79
2023-05-13T01:03:50.518Z,2.79
2023-05-13T01:04:50.610Z,2.69
2023-05-13T01:05:50.692Z,2.85
2023-05-13T01:06:50.771Z,2.79
2023-05-13T01:07:50.862Z,2.69
2023-05-13T01:08:50.940Z,2.79
2023-05-13T01:09:51.019Z,2.85
2023-05-13T01:10:51.672Z,2.58
2023-05-13T01:11:51.173Z,2.79
2023-05-13T01:12:52.181Z,2.85
2023-05-13T01:13:51.346Z,2.79
2023-05-13T01:14:51.444Z,2.79
2023-05-13T01:15:51.537Z,2.79
2023-05-13T01:16:51.721Z,2.69
2023-05-13T01:17:51.722Z,2.79
2023-05-13T01:18:51.904Z,2.85
2023-05-13T01:19:51.888Z,2.47
2023-05-13T01:20:51.922Z,2.74
2023-05-13T01:21:52.035Z,2.79
2023-05-13T01:22:52.110Z,2.85
2023-05-13T01:23:53.213Z,2.63
2023-05-13T01:24:52.308Z,2.63
2023-05-13T01:25:52.386Z,2.79
2023-05-13T01:26:52.474Z,2.69
2023-05-13T01:27:52.561Z,2.79
2023-05-13T01:28:52.652Z,2.85
2023-05-13T01:29:52.754Z,2.74
2023-05-13T01:30:52.863Z,2.79
2023-05-13T01:31:52.943Z,2.90
2023-05-13T01:32:53.063Z,2.69
2023-05-13T01:33:53.697Z,2.63
2023-05-13T01:34:53.193Z,2.85
2023-05-13T01:35:53.295Z,2.63
2023-05-13T01:36:53.352Z,2.69
2023-05-13T01:37:54.202Z,2.74
2023-05-13T01:38:53.549Z,2.85
2023-05-13T01:39:53.636Z,2.85
2023-05-13T01:40:53.722Z,2.85
2023-05-13T01:41:53.810Z,2.79
2023-05-13T01:42:53.905Z,2.85
2023-05-13T01:43:53.999Z,2.63
2023-05-13T01:44:54.078Z,2.63
2023-05-13T01:45:54.189Z,2.85
2023-05-13T01:46:54.423Z,2.63
2023-05-13T01:47:54.352Z,2.69
2023-05-13T01:48:54.424Z,2.69
2023-05-13T01:49:55.188Z,2.63
2023-05-13T01:50:54.591Z,2.79
2023-05-13T01:51:54.638Z,2.63
2023-05-13T01:52:54.730Z,2.63
2023-05-13T01:53:54.814Z,2.58
2023-05-13T01:54:54.896Z,2.58
2023-05-13T01:55:54.989Z,2.79
2023-05-13T01:56:55.090Z,2.63
2023-05-13T01:57:55.149Z,2.79
2023-05-13T01:58:55.241Z,2.63
2023-05-13T01:59:55.333Z,2.63
2023-05-13T02:00:55.406Z,2.58
2023-05-13T02:01:55.507Z,2.79
2023-05-13T02:02:55.690Z,2.85
2023-05-13T02:03:55.708Z,2.63
2023-05-13T02:04:55.765Z,2.63
2023-05-13T02:05:55.849Z,2.69
2023-05-13T02:06:55.941Z,2.90
2023-05-13T02:07:56.000Z,2.79
2023-05-13T02:08:56.086Z,2.58
2023-05-13T02:09:56.171Z,2.90
2023-05-13T02:10:56.253Z,2.63
2023-05-13T02:11:56.320Z,2.79
2023-05-13T02:12:56.406Z,2.79
2023-05-13T02:13:56.494Z,2.63
2023-05-13T02:14:56.582Z,2.58
2023-05-13T02:15:56.798Z,2.79
2023-05-13T02:16:56.804Z,2.69
2023-05-13T02:17:56.920Z,2.74
2023-05-13T02:18:56.952Z,2.79
2023-05-13T02:19:57.017Z,2.85
2023-05-13T02:20:57.097Z,2.85
2023-05-13T02:21:57.173Z,2.79
2023-05-13T02:22:57.291Z,2.69
2023-05-13T02:23:58.204Z,2.69
2023-05-13T02:24:57.401Z,2.63
2023-05-13T02:25:57.498Z,2.85
2023-05-13T02:26:57.587Z,2.69
2023-05-13T02:27:57.687Z,2.63
2023-05-13T02:28:57.777Z,2.79
2023-05-13T02:29:58.700Z,2.85
2023-05-13T02:30:58.708Z,2.85
2023-05-13T02:31:58.023Z,2.63
2023-05-13T02:32:58.110Z,2.63
2023-05-13T02:33:58.183Z,2.79
2023-05-13T02:34:58.255Z,2.63
2023-05-13T02:35:58.344Z,2.63
2023-05-13T02:36:58.429Z,2.74
2023-05-13T02:37:58.525Z,2.79
2023-05-13T02:38:58.594Z,2.63
2023-05-13T02:39:58.666Z,2.69
2023-05-13T02:40:59.723Z,2.79
2023-05-13T02:41:58.827Z,2.79
2023-05-13T02:42:58.915Z,2.63
2023-05-13T02:43:59.024Z,2.85
2023-05-13T02:44:59.079Z,2.85
2023-05-13T02:45:59.180Z,2.63
2023-05-13T02:46:59.244Z,2.69
2023-05-13T02:47:59.390Z,2.79
2023-05-13T02:48:59.428Z,2.74
2023-05-13T02:49:59.519Z,2.90
2023-05-13T02:50:59.598Z,2.74
2023-05-13T02:51:59.654Z,2.74
2023-05-13T02:52:59.736Z,2.63
2023-05-13T02:53:59.825Z,2.79
2023-05-13T02:54:59.932Z,2.69
2023-05-13T02:55:59.968Z,2.90
2023-05-13T02:57:00.044Z,2.74
2023-05-13T02:58:00.167Z,2.69
2023-05-13T02:59:00.220Z,2.63
2023-05-13T03:00:00.308Z,2.79
2023-05-13T03:01:01.220Z,2.63
2023-05-13T03:02:00.459Z,2.79
2023-05-13T03:03:00.621Z,2.69
2023-05-13T03:04:00.634Z,2.63
2023-05-13T03:05:01.726Z,2.79
2023-05-13T03:06:00.783Z,3.01
2023-05-13T03:07:00.862Z,2.69
2023-05-13T03:08:00.945Z,2.79
2023-05-13T03:09:01.029Z,2.85
2023-05-13T03:10:01.134Z,2.58
2023-05-13T03:11:01.200Z,2.79
2023-05-13T03:12:01.276Z,2.74
2023-05-13T03:13:01.371Z,2.85
2023-05-13T03:14:01.456Z,2.79
2023-05-13T03:15:01.550Z,2.79
2023-05-13T03:16:01.651Z,2.85
2023-05-13T03:17:01.714Z,2.63
2023-05-13T03:18:02.749Z,2.63
2023-05-13T03:19:01.905Z,2.74
2023-05-13T03:20:01.963Z,2.79
2023-05-13T03:21:02.041Z,2.90
2023-05-13T03:22:02.133Z,2.63
2023-05-13T03:23:02.221Z,2.58
2023-05-13T03:24:02.319Z,2.85
2023-05-13T03:25:02.394Z,2.58
2023-05-13T03:26:02.477Z,2.63
2023-05-13T03:27:02.555Z,2.58
2023-05-13T03:28:02.640Z,2.79
2023-05-13T03:29:02.719Z,2.63
2023-05-13T03:30:02.813Z,2.79
2023-05-13T03:31:02.899Z,2.85
2023-05-13T03:32:02.971Z,2.95
2023-05-13T03:33:03.752Z,2.85
2023-05-13T03:34:03.714Z,2.63
2023-05-13T03:35:03.230Z,2.58
2023-05-13T03:36:04.218Z,2.95
2023-05-13T03:37:03.377Z,2.85
2023-05-13T03:38:03.478Z,2.69
2023-05-13T03:39:03.565Z,2.85
2023-05-13T03:40:03.641Z,3.01
2023-05-13T03:41:03.746Z,2.63
2023-05-13T03:42:03.830Z,2.79
2023-05-13T03:43:03.911Z,2.58
2023-05-13T03:44:03.997Z,2.90
2023-05-13T03:45:04.725Z,2.79
2023-05-13T03:46:04.166Z,2.79
2023-05-13T03:47:05.264Z,2.79
2023-05-13T03:48:04.392Z,2.63
2023-05-13T03:49:04.414Z,2.90
2023-05-13T03:50:04.464Z,2.63
2023-05-13T03:51:04.572Z,3.01
2023-05-13T03:52:04.680Z,2.79
2023-05-13T03:53:04.719Z,2.79
2023-05-13T03:54:04.815Z,2.90
2023-05-13T03:55:04.922Z,2.79
2023-05-13T03:56:04.965Z,2.63
2023-05-13T03:57:05.062Z,2.85
2023-05-13T03:58:05.151Z,2.63
2023-05-13T03:59:05.725Z,2.85
2023-05-13T04:00:05.260Z,2.79
2023-05-13T04:01:05.414Z,2.79
2023-05-13T04:02:05.483Z,2.69
2023-05-13T04:03:05.626Z,2.85
2023-05-13T04:04:05.624Z,2.58
2023-05-13T04:05:06.326Z,2.79
2023-05-13T04:06:05.746Z,2.63
2023-05-13T04:07:05.826Z,2.79
2023-05-13T04:08:05.873Z,2.63
2023-05-13T04:09:05.965Z,2.74
2023-05-13T04:10:06.074Z,2.63
2023-05-13T04:11:06.726Z,2.85
2023-05-13T04:12:06.210Z,2.85
2023-05-13T04:13:06.348Z,2.69
2023-05-13T04:14:06.371Z,2.63
2023-05-13T04:15:06.479Z,2.79
2023-05-13T04:16:06.540Z,2.58
2023-05-13T04:17:06.802Z,2.69
2023-05-13T04:18:06.767Z,2.69
2023-05-13T04:19:06.847Z,2.79
2023-05-13T04:20:06.854Z,2.85
2023-05-13T04:21:06.944Z,2.79
2023-05-13T04:22:07.060Z,2.69
2023-05-13T04:23:07.164Z,3.49
2023-05-13T04:24:07.209Z,2.79
2023-05-13T04:25:08.244Z,2.79
2023-05-13T04:26:07.357Z,2.52
2023-05-13T04:27:07.457Z,2.63
2023-05-13T04:28:07.567Z,2.79
2023-05-13T04:29:08.234Z,2.63
2023-05-13T04:30:07.720Z,2.79
2023-05-13T04:31:07.835Z,2.69
2023-05-13T04:32:08.831Z,2.69
2023-05-13T04:33:08.083Z,2.85
2023-05-13T04:34:08.070Z,2.63
2023-05-13T04:35:08.741Z,2.69
2023-05-13T04:36:08.734Z,2.63
2023-05-13T04:37:08.300Z,2.58
2023-05-13T04:38:08.377Z,2.90
2023-05-13T04:39:08.458Z,2.79
2023-05-13T04:40:09.249Z,2.63
2023-05-13T04:41:08.661Z,2.63
2023-05-13T04:42:08.763Z,2.69
2023-05-13T04:43:08.820Z,2.69
2023-05-13T04:44:08.903Z,2.58
2023-05-13T04:45:08.969Z,2.74
2023-05-13T04:46:09.113Z,2.85
2023-05-13T04:47:09.118Z,2.63
2023-05-13T04:48:09.280Z,2.69
2023-05-13T04:49:09.322Z,2.42
2023-05-13T04:50:09.399Z,2.74
2023-05-13T04:51:09.540Z,2.63
2023-05-13T04:52:09.582Z,2.47
2023-05-13T04:53:09.661Z,2.79
2023-05-13T04:54:09.750Z,2.42
2023-05-13T04:55:10.758Z,2.79
2023-05-13T04:56:09.925Z,2.79
2023-05-13T04:57:10.025Z,2.63
2023-05-13T04:58:10.114Z,2.36
2023-05-13T04:59:10.206Z,2.58
2023-05-13T05:00:10.311Z,2.79
2023-05-13T05:01:10.470Z,2.85
2023-05-13T05:02:10.496Z,2.52
2023-05-13T05:03:11.260Z,2.74
2023-05-13T05:04:10.730Z,2.74
2023-05-13T05:05:10.742Z,2.74
2023-05-13T05:06:10.814Z,2.79
2023-05-13T05:07:10.879Z,2.74
2023-05-13T05:08:10.933Z,2.74
2023-05-13T05:09:11.029Z,2.42
2023-05-13T05:10:11.759Z,2.79
2023-05-13T05:11:11.171Z,2.42
2023-05-13T05:12:11.260Z,2.79
2023-05-13T05:13:11.370Z,2.47
2023-05-13T05:14:11.421Z,2.79
2023-05-13T05:15:12.254Z,2.63
2023-05-13T05:16:12.248Z,2.79
2023-05-13T05:17:11.727Z,2.63
2023-05-13T05:18:11.845Z,2.47
2023-05-13T05:19:11.844Z,2.47
2023-05-13T05:20:11.928Z,2.42
2023-05-13T05:21:12.018Z,2.47
2023-05-13T05:22:12.066Z,2.47
2023-05-13T05:23:12.219Z,2.52
2023-05-13T05:24:12.245Z,2.69
2023-05-13T05:25:12.321Z,2.52
2023-05-13T05:26:12.782Z,2.63
2023-05-13T05:27:12.511Z,2.52
2023-05-13T05:28:12.596Z,2.58
2023-05-13T05:29:12.700Z,2.58
2023-05-13T05:30:12.792Z,2.47
2023-05-13T05:31:12.871Z,2.58
2023-05-13T05:32:12.903Z,2.69
2023-05-13T05:33:12.991Z,2.63
2023-05-13T05:34:13.096Z,2.52
2023-05-13T05:35:13.198Z,2.58
2023-05-13T05:36:13.311Z,2.58
2023-05-13T05:37:13.351Z,2.69
2023-05-13T05:38:13.441Z,2.42
2023-05-13T05:39:13.541Z,2.58
2023-05-13T05:40:14.265Z,2.63
2023-05-13T05:41:13.751Z,2.52
2023-05-13T05:42:13.803Z,2.58
2023-05-13T05:43:13.903Z,2.63
2023-05-13T05:44:14.003Z,2.47
2023-05-13T05:45:14.764Z,2.47
2023-05-13T05:46:14.229Z,2.47
2023-05-13T05:47:14.249Z,2.42
2023-05-13T05:48:14.342Z,2.42
2023-05-13T05:49:14.431Z,2.42
2023-05-13T05:50:14.556Z,2.63
2023-05-13T05:51:14.622Z,2.58
2023-05-13T05:52:14.719Z,2.47
2023-05-13T05:53:14.784Z,2.26
2023-05-13T05:54:14.865Z,2.63
2023-05-13T05:55:14.959Z,2.52
2023-05-13T05:56:15.062Z,2.42
2023-05-13T05:57:15.169Z,2.47
2023-05-13T05:58:15.239Z,2.58
2023-05-13T05:59:15.302Z,2.58
2023-05-13T06:00:15.383Z,2.47
2023-05-13T06:01:15.471Z,2.26
2023-05-13T06:02:15.576Z,2.42
2023-05-13T06:03:16.483Z,2.26
2023-05-13T06:05:30.487Z,2.58
2023-05-13T06:06:33.152Z,2.26
2023-05-13T06:07:31.626Z,2.42
2023-05-13T06:08:31.718Z,2.47
2023-05-13T06:09:31.811Z,2.47
2023-05-13T06:10:31.895Z,2.26
2023-05-13T06:11:31.991Z,1.67
2023-05-13T06:12:32.080Z,2.58
2023-05-13T06:13:32.175Z,2.58
2023-05-13T06:14:32.275Z,2.63
2023-05-13T06:15:32.433Z,2.47
2023-05-13T06:16:32.508Z,2.42
2023-05-13T06:17:32.518Z,2.63
2023-05-13T06:18:32.582Z,2.52
2023-05-13T06:19:32.650Z,2.58
2023-05-13T06:20:32.748Z,2.31
2023-05-13T06:21:32.825Z,2.69
2023-05-13T06:22:32.921Z,2.36
2023-05-13T06:23:33.037Z,2.63
2023-05-13T06:24:33.070Z,2.63
2023-05-13T06:25:33.160Z,2.42
2023-05-13T06:26:33.261Z,2.31
2023-05-13T06:27:33.340Z,2.47
2023-05-13T06:28:33.447Z,2.42
2023-05-13T06:29:33.513Z,2.26
2023-05-13T06:30:33.567Z,2.42
2023-05-13T06:31:33.697Z,2.26
2023-05-13T06:32:33.748Z,2.36
2023-05-13T06:33:33.853Z,2.31
2023-05-13T06:34:33.900Z,2.42
2023-05-13T06:35:33.993Z,2.42
2023-05-13T06:36:34.144Z,2.79
2023-05-13T06:37:34.162Z,2.42
2023-05-13T06:38:34.253Z,2.36
2023-05-13T06:39:34.354Z,2.26
2023-05-13T06:40:34.419Z,2.42
2023-05-13T06:41:34.508Z,2.26
2023-05-13T06:42:34.599Z,2.52
2023-05-13T06:43:34.702Z,2.31
2023-05-13T06:44:34.764Z,2.42
2023-05-13T06:45:34.832Z,2.36
2023-05-13T06:46:34.895Z,2.26
2023-05-13T06:47:35.009Z,2.26
2023-05-13T06:48:35.103Z,2.26
2023-05-13T06:49:35.202Z,2.47
2023-05-13T06:50:35.259Z,2.42
2023-05-13T06:51:35.376Z,2.31
2023-05-13T06:52:35.439Z,2.42
2023-05-13T06:53:35.534Z,2.31
2023-05-13T06:54:35.647Z,2.26
2023-05-13T06:55:35.689Z,2.31
2023-05-13T06:56:35.772Z,2.26
2023-05-13T06:57:42.418Z,2.42
2023-05-13T06:58:35.905Z,2.42
2023-05-13T06:59:35.997Z,2.31
2023-05-13T07:00:36.141Z,2.36
2023-05-13T07:01:36.276Z,2.26
2023-05-13T07:02:37.005Z,2.26
2023-05-13T07:03:36.390Z,2.36
2023-05-13T07:04:36.410Z,2.47
2023-05-13T07:05:36.514Z,2.31
2023-05-13T07:06:36.635Z,2.26
2023-05-13T07:07:36.673Z,2.47
2023-05-13T07:08:36.765Z,2.26
2023-05-13T07:09:36.895Z,2.47
2023-05-13T07:10:37.042Z,2.20
2023-05-13T07:11:37.032Z,2.26
2023-05-13T07:12:37.131Z,2.26
2023-05-13T07:13:37.990Z,2.26
2023-05-13T07:14:37.250Z,2.36
2023-05-13T07:15:37.393Z,2.26
2023-05-13T07:16:37.404Z,2.36
2023-05-13T07:17:37.621Z,2.31
2023-05-13T07:18:37.632Z,2.42
2023-05-13T07:19:37.658Z,2.42
2023-05-13T07:20:37.713Z,2.26
2023-05-13T07:21:37.812Z,2.36
2023-05-13T07:22:37.863Z,2.31
2023-05-13T07:23:37.934Z,2.31
2023-05-13T07:24:38.046Z,2.47
2023-05-13T07:25:38.102Z,2.47
2023-05-13T07:26:38.197Z,2.42
2023-05-13T07:27:38.337Z,2.42
2023-05-13T07:28:38.390Z,2.26
2023-05-13T07:29:38.485Z,2.26
2023-05-13T07:30:38.555Z,2.26
2023-05-13T07:31:38.636Z,2.42
2023-05-13T07:32:38.771Z,2.26
2023-05-13T07:33:38.828Z,2.26
2023-05-13T07:34:38.923Z,2.31
2023-05-13T07:35:39.013Z,2.20
2023-05-13T07:36:40.087Z,2.31
2023-05-13T07:37:39.147Z,2.20
2023-05-13T07:38:39.243Z,2.36
2023-05-13T07:39:39.328Z,2.47
2023-05-13T07:40:39.439Z,2.42
2023-05-13T07:41:39.534Z,2.31
2023-05-13T07:42:39.598Z,2.42
2023-05-13T07:43:39.672Z,2.42
2023-05-13T07:44:39.787Z,2.42
2023-05-13T07:45:39.863Z,2.31
2023-05-13T07:46:39.995Z,2.42
2023-05-13T07:47:41.473Z,2.36
2023-05-13T07:48:40.087Z,1.99
2023-05-13T07:49:40.203Z,2.31
2023-05-13T07:50:40.257Z,2.31
2023-05-13T07:51:40.359Z,2.42
2023-05-13T07:52:40.441Z,2.26
2023-05-13T07:53:40.543Z,2.09
2023-05-13T07:54:40.618Z,2.31
2023-05-13T07:55:40.712Z,2.47
2023-05-13T07:56:40.831Z,2.47
2023-05-13T07:57:40.850Z,2.31
2023-05-13T07:58:40.954Z,2.26
2023-05-13T07:59:42.745Z,2.47
2023-05-13T08:00:41.121Z,2.42
2023-05-13T08:01:41.217Z,2.42
2023-05-13T08:02:41.413Z,2.04
2023-05-13T08:03:41.515Z,2.31
2023-05-13T08:04:41.505Z,2.15
2023-05-13T08:05:41.524Z,2.20
2023-05-13T08:06:41.618Z,2.26
2023-05-13T08:07:41.712Z,2.42
2023-05-13T08:08:41.810Z,2.26
2023-05-13T08:09:41.899Z,2.26
2023-05-13T08:10:41.979Z,2.42
2023-05-13T08:11:42.052Z,2.31
2023-05-13T08:12:42.140Z,2.42
2023-05-13T08:13:42.241Z,2.31
2023-05-13T08:14:42.293Z,2.31
2023-05-13T08:15:42.394Z,2.36
2023-05-13T08:16:42.499Z,2.31
2023-05-13T08:17:42.569Z,2.31
2023-05-13T08:18:42.626Z,2.42
2023-05-13T08:19:42.705Z,2.47
2023-05-13T08:20:42.769Z,1.93
2023-05-13T08:21:42.831Z,2.31
2023-05-13T08:22:42.927Z,2.42
2023-05-13T08:23:45.755Z,2.47
2023-05-13T08:24:43.184Z,2.42
2023-05-13T08:25:43.154Z,2.42
2023-05-13T08:26:43.209Z,2.31
2023-05-13T08:27:43.293Z,2.26
2023-05-13T08:28:43.417Z,2.09
2023-05-13T08:29:43.462Z,2.26
2023-05-13T08:30:43.554Z,2.20
2023-05-13T08:31:43.715Z,2.31
2023-05-13T08:32:43.791Z,2.26
2023-05-13T08:33:43.806Z,2.31
2023-05-13T08:34:43.913Z,2.26
2023-05-13T08:35:44.907Z,2.36
2023-05-13T08:36:44.062Z,2.47
2023-05-13T08:37:44.154Z,2.26
2023-05-13T08:38:44.241Z,2.42
2023-05-13T08:39:44.327Z,2.31
2023-05-13T08:40:44.408Z,2.09
2023-05-13T08:41:44.516Z,2.04
2023-05-13T08:42:44.595Z,2.26
2023-05-13T08:43:44.679Z,2.26
2023-05-13T08:44:44.748Z,2.26
2023-05-13T08:45:44.849Z,2.42
2023-05-13T08:46:44.911Z,2.31
2023-05-13T08:47:45.062Z,2.31
2023-05-13T08:48:45.078Z,2.47
2023-05-13T08:49:45.170Z,2.15
2023-05-13T08:50:45.260Z,2.52
2023-05-13T08:51:45.357Z,2.09
2023-05-13T08:52:45.440Z,2.42
2023-05-13T08:53:45.540Z,2.42
2023-05-13T08:54:45.666Z,2.42
2023-05-13T08:55:45.725Z,2.42
2023-05-13T08:56:45.817Z,2.42
2023-05-13T08:57:45.891Z,2.31
2023-05-13T08:58:46.038Z,2.26
2023-05-13T08:59:46.084Z,2.09
2023-05-13T09:00:46.135Z,2.26
2023-05-13T09:01:46.365Z,2.47
2023-05-13T09:02:46.373Z,2.42
2023-05-13T09:03:46.414Z,2.09
2023-05-13T09:04:46.547Z,2.36
2023-05-13T09:05:46.572Z,2.26
2023-05-13T09:06:46.667Z,2.42
2023-05-13T09:07:46.750Z,2.42
2023-05-13T09:08:46.841Z,2.31
2023-05-13T09:09:46.944Z,2.26
2023-05-13T09:10:47.032Z,2.26
2023-05-13T09:11:47.129Z,2.09
2023-05-13T09:12:47.201Z,2.52
2023-05-13T09:13:47.283Z,2.47
2023-05-13T09:14:47.366Z,2.36
2023-05-13T09:15:47.496Z,2.47
2023-05-13T09:16:47.570Z,2.20
2023-05-13T09:17:47.712Z,2.47
2023-05-13T09:18:47.779Z,2.09
2023-05-13T09:19:47.843Z,2.36
2023-05-13T09:20:47.888Z,2.26
2023-05-13T09:21:47.967Z,2.04
2023-05-13T09:22:48.074Z,2.09
2023-05-13T09:23:48.154Z,2.09
2023-05-13T09:24:48.249Z,2.26
2023-05-13T09:25:48.336Z,2.20
2023-05-13T09:26:48.401Z,2.42
2023-05-13T09:27:48.448Z,2.31
2023-05-13T09:28:48.508Z,2.26
2023-05-13T09:29:48.599Z,2.26
2023-05-13T09:30:48.718Z,2.47
2023-05-13T09:31:48.786Z,2.42
2023-05-13T09:32:48.922Z,2.20
2023-05-13T09:33:48.970Z,2.31
2023-05-13T09:34:49.062Z,2.42
2023-05-13T09:35:49.160Z,2.04
2023-05-13T09:36:50.175Z,2.26
2023-05-13T09:37:49.288Z,2.31
2023-05-13T09:38:49.386Z,2.09
2023-05-13T09:39:49.490Z,2.04
2023-05-13T09:40:49.569Z,2.20
2023-05-13T09:41:49.674Z,2.42
2023-05-13T09:42:49.767Z,2.52
2023-05-13T09:43:49.825Z,2.36
2023-05-13T09:44:49.927Z,2.31
2023-05-13T09:45:50.029Z,2.42
2023-05-13T09:46:50.151Z,2.31
2023-05-13T09:47:50.265Z,2.26
2023-05-13T09:48:50.252Z,2.47
2023-05-13T09:49:50.343Z,2.47
2023-05-13T09:50:50.443Z,2.42
2023-05-13T09:51:50.543Z,2.47
2023-05-13T09:52:50.598Z,2.42
2023-05-13T09:53:50.687Z,2.31
2023-05-13T09:54:50.785Z,2.47
2023-05-13T09:55:50.878Z,2.26
2023-05-13T09:56:50.946Z,2.26
2023-05-13T09:57:51.045Z,2.42
2023-05-13T09:58:51.169Z,2.42
2023-05-13T09:59:51.199Z,2.31
2023-05-13T10:00:51.404Z,2.42
2023-05-13T10:01:51.490Z,2.20
2023-05-13T10:02:51.505Z,2.26
2023-05-13T10:03:51.609Z,2.42
2023-05-13T10:04:51.647Z,2.26
2023-05-13T10:05:51.745Z,2.31
2023-05-13T10:06:51.832Z,2.15
2023-05-13T10:07:51.907Z,2.15
2023-05-13T10:08:51.958Z,2.26
2023-05-13T10:09:52.071Z,2.26
2023-05-13T10:10:52.285Z,2.26
2023-05-13T10:11:52.210Z,2.47
2023-05-13T10:12:52.320Z,2.47
2023-05-13T10:13:52.375Z,2.42
2023-05-13T10:14:52.462Z,2.36
2023-05-13T10:15:52.559Z,2.47
2023-05-13T10:16:52.683Z,2.09
2023-05-13T10:17:52.804Z,2.31
2023-05-13T10:18:52.859Z,2.26
2023-05-13T10:19:52.899Z,2.26
2023-05-13T10:20:53.700Z,2.47
2023-05-13T10:21:53.071Z,2.09
2023-05-13T10:22:53.152Z,2.31
2023-05-13T10:23:53.259Z,2.26
2023-05-13T10:24:53.318Z,2.31
2023-05-13T10:25:53.418Z,2.31
2023-05-13T10:26:53.520Z,2.47
2023-05-13T10:27:53.606Z,2.31
2023-05-13T10:28:53.709Z,2.36
2023-05-13T10:29:53.769Z,2.47
2023-05-13T10:30:53.973Z,2.42
2023-05-13T10:31:53.926Z,2.26
2023-05-13T10:32:54.033Z,2.26
2023-05-13T10:33:54.060Z,2.26
2023-05-13T10:34:54.110Z,2.31
2023-05-13T10:35:54.220Z,2.04
2023-05-13T10:36:54.265Z,2.47
2023-05-13T10:37:54.358Z,1.88
2023-05-13T10:38:54.490Z,2.42
2023-05-13T10:39:54.539Z,2.31
2023-05-13T10:40:54.642Z,2.42
2023-05-13T10:41:54.742Z,2.20
2023-05-13T10:42:54.794Z,2.36
2023-05-13T10:43:54.880Z,2.47
2023-05-13T10:44:55.016Z,2.42
2023-05-13T10:45:55.116Z,2.63
2023-05-13T10:46:55.158Z,2.31
2023-05-13T10:47:55.295Z,2.47
2023-05-13T10:48:55.335Z,2.09
2023-05-13T10:49:55.438Z,2.47
2023-05-13T10:50:55.505Z,2.15
2023-05-13T10:51:55.583Z,2.31
2023-05-13T10:52:55.688Z,2.47
2023-05-13T10:53:55.825Z,2.47
2023-05-13T10:54:55.867Z,1.99
2023-05-13T10:55:55.967Z,2.26
2023-05-13T10:56:56.081Z,2.31
2023-05-13T10:57:56.140Z,2.26
2023-05-13T10:58:56.235Z,2.26
2023-05-13T10:59:56.344Z,2.42
2023-05-13T11:00:56.400Z,2.42
2023-05-13T11:01:56.526Z,2.09
2023-05-13T11:02:56.646Z,2.42
2023-05-13T11:03:56.754Z,2.42
2023-05-13T11:04:56.718Z,2.20
2023-05-13T11:05:56.807Z,2.09
2023-05-13T11:06:56.884Z,2.31
2023-05-13T11:07:57.028Z,2.26
2023-05-13T11:08:57.055Z,2.47
2023-05-13T11:09:57.167Z,2.31
2023-05-13T11:10:57.193Z,2.36
2023-05-13T11:11:57.345Z,2.26
2023-05-13T11:12:57.327Z,2.26
2023-05-13T11:13:57.753Z,2.42
2023-05-13T11:14:57.532Z,2.31
2023-05-13T11:15:57.644Z,2.26
2023-05-13T11:16:57.662Z,2.26
2023-05-13T11:17:57.815Z,2.31
2023-05-13T11:18:57.905Z,2.31
2023-05-13T11:19:57.924Z,2.26
2023-05-13T11:20:58.034Z,2.26
2023-05-13T11:21:58.089Z,2.26
2023-05-13T11:22:58.172Z,2.47
2023-05-13T11:23:58.293Z,2.31
2023-05-13T11:24:58.343Z,2.31
2023-05-13T11:25:58.440Z,2.36
2023-05-13T11:26:58.573Z,2.26
2023-05-13T11:27:58.637Z,2.31
2023-05-13T11:28:58.713Z,2.42
2023-05-13T11:29:58.817Z,2.47
2023-05-13T11:30:58.919Z,2.31
2023-05-13T11:32:00.593Z,2.47
2023-05-13T11:32:59.166Z,2.31
2023-05-13T11:33:59.105Z,2.31
2023-05-13T11:34:59.156Z,2.31
2023-05-13T11:35:59.250Z,2.26
2023-05-13T11:36:59.353Z,2.47
2023-05-13T11:38:00.405Z,2.26
2023-05-13T11:38:59.517Z,2.47
2023-05-13T11:39:59.636Z,2.36
2023-05-13T11:40:59.700Z,2.26
2023-05-13T11:41:59.785Z,2.42
2023-05-13T11:42:59.878Z,2.36
2023-05-13T11:43:59.985Z,2.42
2023-05-13T11:45:00.057Z,2.26
2023-05-13T11:46:00.249Z,2.36
2023-05-13T11:47:00.238Z,2.31
2023-05-13T11:48:00.345Z,2.26
2023-05-13T11:49:00.427Z,2.47
2023-05-13T11:50:00.474Z,2.31
2023-05-13T11:51:00.569Z,2.42
2023-05-13T11:52:00.640Z,2.47
2023-05-13T11:53:00.777Z,2.26
2023-05-13T11:54:00.817Z,2.20
2023-05-13T11:55:00.889Z,2.47
2023-05-13T11:56:00.979Z,2.36
2023-05-13T11:57:01.072Z,2.42
2023-05-13T11:58:01.178Z,2.42
2023-05-13T11:59:01.249Z,2.31
2023-05-13T12:00:01.334Z,2.31
2023-05-13T12:01:01.408Z,2.47
2023-05-13T12:02:01.602Z,2.31
2023-05-13T12:03:01.816Z,2.42
2023-05-13T12:04:01.662Z,2.26
2023-05-13T12:05:01.942Z,2.31
2023-05-13T12:06:01.827Z,2.26
2023-05-13T12:07:01.947Z,2.42
2023-05-13T12:08:01.987Z,2.42
2023-05-13T12:09:02.114Z,2.31
2023-05-13T12:10:02.144Z,2.42
2023-05-13T12:11:02.224Z,2.42
2023-05-13T12:12:02.329Z,2.26
2023-05-13T12:13:02.429Z,2.47
2023-05-13T12:14:02.548Z,2.26
2023-05-13T12:15:02.592Z,2.31
2023-05-13T12:16:02.737Z,2.47
2023-05-13T12:17:02.775Z,2.47
2023-05-13T12:18:02.902Z,2.58
2023-05-13T12:19:02.990Z,2.42
2023-05-13T12:20:03.043Z,2.42
2023-05-13T12:21:03.096Z,2.42
2023-05-13T12:22:05.427Z,2.42
2023-05-13T12:23:03.253Z,2.26
2023-05-13T12:24:03.345Z,2.31
2023-05-13T12:25:03.440Z,2.36
2023-05-13T12:26:03.540Z,2.47
2023-05-13T12:27:03.590Z,2.36
2023-05-13T12:28:03.688Z,2.31
2023-05-13T12:29:03.840Z,2.47
2023-05-13T12:30:03.889Z,2.42
2023-05-13T12:31:03.964Z,2.26
2023-05-13T12:32:04.050Z,2.31
2023-05-13T12:33:04.150Z,2.31
2023-05-13T12:34:04.215Z,2.42
2023-05-13T12:35:04.458Z,2.36
2023-05-13T12:36:04.419Z,2.09
2023-05-13T12:37:04.580Z,2.47
2023-05-13T12:38:04.559Z,2.15
2023-05-13T12:39:04.673Z,2.42
2023-05-13T12:40:04.732Z,2.04
2023-05-13T12:41:04.825Z,2.47
2023-05-13T12:42:04.913Z,2.31
2023-05-13T12:43:05.006Z,2.47
2023-05-13T12:44:05.080Z,2.20
2023-05-13T12:45:05.190Z,2.42
2023-05-13T12:46:05.290Z,2.42
2023-05-13T12:47:05.366Z,2.26
2023-05-13T12:48:05.458Z,2.47
2023-05-13T12:49:05.452Z,2.36
2023-05-13T12:50:05.534Z,2.26
2023-05-13T12:51:05.649Z,2.36
2023-05-13T12:52:05.709Z,2.42
2023-05-13T12:53:05.807Z,2.26
2023-05-13T12:54:05.895Z,2.47
2023-05-13T12:55:05.992Z,2.42
2023-05-13T12:56:06.071Z,2.31
2023-05-13T12:57:06.115Z,2.26
2023-05-13T12:58:06.221Z,2.31
2023-05-13T12:59:06.316Z,2.26
2023-05-13T13:00:06.411Z,2.47
2023-05-13T13:01:07.176Z,2.42
2023-05-13T13:02:06.558Z,2.42
2023-05-13T13:03:06.759Z,2.26
2023-05-13T13:04:06.746Z,2.58
2023-05-13T13:05:06.806Z,2.47
2023-05-13T13:06:06.864Z,2.36
2023-05-13T13:07:06.949Z,2.63
2023-05-13T13:08:07.107Z,2.58
2023-05-13T13:09:07.136Z,2.42
2023-05-13T13:10:07.209Z,2.47
2023-05-13T13:11:07.259Z,2.52
2023-05-13T13:12:07.343Z,2.26
2023-05-13T13:13:07.423Z,2.42
2023-05-13T13:14:07.526Z,2.20
2023-05-13T13:15:07.622Z,2.26
2023-05-13T13:16:07.742Z,2.36
2023-05-13T13:17:07.814Z,2.26
2023-05-13T13:18:07.913Z,2.42
2023-05-13T13:19:07.996Z,2.63
2023-05-13T13:20:08.196Z,2.36
2023-05-13T13:21:08.117Z,2.26